createdAt,value
2019-04-07T00:01:18.472Z,45.43
2019-04-07T00:03:48.360Z,45.05
2019-04-07T00:06:17.675Z,43.42
2019-04-07T00:08:47.522Z,46.55
2019-04-07T00:11:17.570Z,45.40
2019-04-07T00:13:46.939Z,43.60
2019-04-07T00:16:17.086Z,44.15
2019-04-07T00:18:47.033Z,43.45
2019-04-07T00:21:16.823Z,44.88
2019-04-07T00:23:46.245Z,46.60
2019-04-07T00:26:15.661Z,45.35
2019-04-07T00:28:45.410Z,42.70
2019-04-07T00:31:14.784Z,43.02
2019-04-07T00:33:44.113Z,43.15
2019-04-07T00:36:13.456Z,43.35
2019-04-07T00:38:42.803Z,44.03
2019-04-07T00:41:12.150Z,46.58
2019-04-07T00:43:42.943Z,44.90
2019-04-07T00:46:12.456Z,45.48
2019-04-07T00:48:42.391Z,42.03
2019-04-07T00:51:12.861Z,43.15
2019-04-07T00:53:42.171Z,44.48
2019-04-07T00:56:11.633Z,45.38
2019-04-07T00:58:40.937Z,42.48
2019-04-07T01:01:11.686Z,43.25
2019-04-07T01:03:41.415Z,42.48
2019-04-07T01:06:11.462Z,44.85
2019-04-07T01:08:41.366Z,43.05
2019-04-07T01:11:11.316Z,43.78
2019-04-07T01:13:40.708Z,42.10
2019-04-07T01:16:10.052Z,44.53
2019-04-07T01:18:39.382Z,41.90
2019-04-07T01:21:09.429Z,44.35
2019-04-07T01:23:39.510Z,41.55
2019-04-07T01:26:08.857Z,43.15
2019-04-07T01:28:38.863Z,45.05
2019-04-07T01:31:08.801Z,44.38
2019-04-07T01:33:38.918Z,45.20
2019-04-07T01:36:08.683Z,44.50
2019-04-07T01:38:38.990Z,41.73
2019-04-07T01:41:12.867Z,44.88
2019-04-07T01:43:56.139Z,43.63
2019-04-07T01:46:39.686Z,41.98
2019-04-07T01:49:11.019Z,45.28
2019-04-07T01:51:51.877Z,44.63
2019-04-07T01:54:31.854Z,43.30
2019-04-07T01:57:05.764Z,43.78
2019-04-07T01:59:52.888Z,42.67
2019-04-07T02:02:39.227Z,43.70
2019-04-07T02:05:10.865Z,46.70
2019-04-07T02:07:51.266Z,42.38
2019-04-07T02:10:29.034Z,43.10
2019-04-07T02:13:03.219Z,42.65
2019-04-07T02:15:37.258Z,42.75
2019-04-07T02:18:20.142Z,41.90
2019-04-07T02:21:00.472Z,41.25
2019-04-07T02:23:31.691Z,42.70
2019-04-07T02:26:08.381Z,44.05
2019-04-07T02:28:42.996Z,43.13
2019-04-07T02:31:17.246Z,44.93
2019-04-07T02:33:48.236Z,47.03
2019-04-07T02:36:25.633Z,45.10
2019-04-07T02:38:52.056Z,45.00
2019-04-07T02:41:23.985Z,45.95
2019-04-07T02:43:55.605Z,44.18
2019-04-07T02:46:27.101Z,44.42
2019-04-07T02:49:04.221Z,46.02
2019-04-07T02:51:42.133Z,44.67
2019-04-07T02:54:13.471Z,46.80
2019-04-07T02:56:45.057Z,42.23
2019-04-07T02:59:33.472Z,44.18
2019-04-07T03:02:20.884Z,42.43
2019-04-07T03:05:08.219Z,43.05
2019-04-07T03:07:48.734Z,46.58
2019-04-07T03:10:22.822Z,43.30
2019-04-07T03:13:00.930Z,44.25
2019-04-07T03:15:32.455Z,43.30
2019-04-07T03:18:06.965Z,42.70
2019-04-07T03:20:45.530Z,42.43
2019-04-07T03:23:22.873Z,43.30
2019-04-07T03:25:54.803Z,41.58
2019-04-07T03:28:29.084Z,42.62
2019-04-07T03:31:01.848Z,41.68
2019-04-07T03:33:35.988Z,44.08
2019-04-07T03:36:08.294Z,41.85
2019-04-07T03:38:41.200Z,44.43
2019-04-07T03:41:29.102Z,44.63
2019-04-07T03:44:01.205Z,43.73
2019-04-07T03:46:32.609Z,43.70
2019-04-07T03:49:20.130Z,44.48
2019-04-07T03:51:52.746Z,46.20
2019-04-07T03:54:36.655Z,43.15
2019-04-07T03:57:19.984Z,45.60
2019-04-07T04:00:04.083Z,45.98
2019-04-07T04:02:41.408Z,44.15
2019-04-07T04:05:22.171Z,45.03
2019-04-07T04:08:09.532Z,43.78
2019-04-07T04:10:42.337Z,43.65
2019-04-07T04:13:14.318Z,47.58
2019-04-07T04:15:48.149Z,44.90
2019-04-07T04:20:46.453Z,46.70
2019-04-07T04:23:15.766Z,46.23
2019-04-07T04:25:47.072Z,46.92
2019-04-07T04:28:16.794Z,48.48
2019-04-07T04:30:46.334Z,45.65
2019-04-07T04:33:16.000Z,46.77
2019-04-07T04:35:46.066Z,45.33
2019-04-07T04:38:16.523Z,47.98
2019-04-07T04:40:46.018Z,45.43
2019-04-07T04:43:15.642Z,49.70
2019-04-07T04:45:46.036Z,46.53
2019-04-07T04:48:15.646Z,46.70
2019-04-07T04:50:45.760Z,49.25
2019-04-07T04:53:15.136Z,47.25
2019-04-07T04:55:44.476Z,47.70
2019-04-07T04:58:13.820Z,46.40
2019-04-07T05:00:44.409Z,48.08
2019-04-07T05:03:13.948Z,47.03
2019-04-07T05:05:43.299Z,44.48
2019-04-07T05:08:12.933Z,45.35
2019-04-07T05:10:42.748Z,49.03
2019-04-07T05:13:12.201Z,47.75
2019-04-07T05:15:41.625Z,49.20
2019-04-07T05:18:11.213Z,49.35
2019-04-07T05:20:40.868Z,48.13
2019-04-07T05:23:10.546Z,48.75
2019-04-07T05:25:40.302Z,50.67
2019-04-07T05:28:10.052Z,48.58
2019-04-07T05:30:39.422Z,50.35
2019-04-07T05:33:08.905Z,51.10
2019-04-07T05:35:38.269Z,49.55
2019-04-07T05:38:08.357Z,51.92
2019-04-07T05:40:37.972Z,52.95
2019-04-07T05:43:07.299Z,50.95
2019-04-07T05:45:37.621Z,50.70
2019-04-07T05:48:07.675Z,51.55
2019-04-07T05:50:37.616Z,52.05
2019-04-07T05:53:12.131Z,55.17
2019-04-07T05:55:38.136Z,51.50
2019-04-07T05:58:08.489Z,51.70
2019-04-07T06:00:39.116Z,52.90
2019-04-07T06:03:09.401Z,52.80
2019-04-07T06:05:38.795Z,54.40
2019-04-07T06:08:22.087Z,49.42
2019-04-07T06:10:39.238Z,53.00
2019-04-07T06:13:11.815Z,50.67
2019-04-07T06:15:40.309Z,50.85
2019-04-07T06:18:09.643Z,53.13
2019-04-07T06:20:39.201Z,54.98
2019-04-07T06:23:08.601Z,55.33
2019-04-07T06:25:41.663Z,54.60
2019-04-07T06:28:09.658Z,56.33
2019-04-07T06:30:39.516Z,56.33
2019-04-07T06:33:08.924Z,55.58
2019-04-07T06:35:39.177Z,53.28
2019-04-07T06:38:08.986Z,57.23
2019-04-07T06:40:38.329Z,56.50
2019-04-07T06:43:07.684Z,55.85
2019-04-07T06:45:52.748Z,55.05
2019-04-07T06:48:22.236Z,54.53
2019-04-07T06:50:58.365Z,54.13
2019-04-07T06:53:26.877Z,53.20
2019-04-07T06:56:04.953Z,54.60
2019-04-07T06:58:52.441Z,52.75
2019-04-07T07:01:30.664Z,52.67
2019-04-07T07:04:01.947Z,48.65
2019-04-07T07:06:48.403Z,47.80
2019-04-07T07:09:38.755Z,47.33
2019-04-07T07:12:19.232Z,49.65
2019-04-07T07:15:00.386Z,49.58
2019-04-07T07:17:42.640Z,46.90
2019-04-07T07:20:13.579Z,46.60
2019-04-07T07:22:56.330Z,45.48
2019-04-07T07:25:28.584Z,45.95
2019-04-07T07:27:56.736Z,45.30
2019-04-07T07:30:26.082Z,42.62
2019-04-07T07:32:55.424Z,45.38
2019-04-07T07:35:25.575Z,42.93
2019-04-07T07:37:57.593Z,42.10
2019-04-07T07:40:26.369Z,44.23
2019-04-07T07:42:58.111Z,42.98
2019-04-07T07:45:27.373Z,44.18
2019-04-07T07:47:56.737Z,41.33
2019-04-07T07:50:26.684Z,40.65
2019-04-07T07:52:56.223Z,41.50
2019-04-07T07:55:26.450Z,40.17
2019-04-07T07:57:58.957Z,39.98
2019-04-07T08:00:27.143Z,39.95
2019-04-07T08:02:56.471Z,39.20
2019-04-07T08:05:29.907Z,37.70
2019-04-07T08:07:56.860Z,37.90
2019-04-07T08:10:26.927Z,38.55
2019-04-07T08:12:57.439Z,37.20
2019-04-07T08:15:31.953Z,38.15
2019-04-07T08:18:03.369Z,34.08
2019-04-07T08:20:30.630Z,35.45
2019-04-07T08:23:00.692Z,35.35
2019-04-07T08:25:31.782Z,35.05
2019-04-07T08:28:03.613Z,34.63
2019-04-07T08:30:32.856Z,33.98
2019-04-07T08:33:03.464Z,32.83
2019-04-07T08:35:38.176Z,33.30
2019-04-07T08:38:05.613Z,32.33
2019-04-07T08:40:36.839Z,31.57
2019-04-07T08:43:06.146Z,29.37
2019-04-07T08:45:35.945Z,29.90
2019-04-07T08:48:06.187Z,27.70
2019-04-07T08:50:36.317Z,26.48
2019-04-07T08:53:05.676Z,24.92
2019-04-07T08:55:35.570Z,24.72
2019-04-07T08:58:05.895Z,14.05
2019-04-07T09:00:38.724Z,15.23
2019-04-07T09:03:12.137Z,21.17
2019-04-07T09:05:39.865Z,22.80
2019-04-07T09:08:09.280Z,21.12
2019-04-07T09:10:40.518Z,22.70
2019-04-07T09:13:10.770Z,21.95
2019-04-07T09:15:56.752Z,21.48
2019-04-07T09:18:27.750Z,19.75
2019-04-07T09:21:13.315Z,17.57
2019-04-07T09:23:58.299Z,16.95
2019-04-07T09:26:40.555Z,18.75
2019-04-07T09:29:28.309Z,17.55
2019-04-07T09:32:02.455Z,17.40
2019-04-07T09:37:04.501Z,16.75
2019-04-07T09:39:59.168Z,15.38
2019-04-07T09:42:41.151Z,14.87
2019-04-07T09:45:12.821Z,15.13
2019-04-07T09:47:57.538Z,13.03
2019-04-07T09:50:34.584Z,13.18
2019-04-07T09:53:06.581Z,13.22
2019-04-07T09:55:57.797Z,12.78
2019-04-07T09:58:46.968Z,12.05
2019-04-07T10:01:21.062Z,12.33
2019-04-07T10:03:52.064Z,10.75
2019-04-07T10:06:29.096Z,10.78
2019-04-07T10:09:00.120Z,11.12
2019-04-07T10:11:31.727Z,11.30
2019-04-07T10:14:06.247Z,10.90
2019-04-07T10:16:37.239Z,10.98
2019-04-07T10:19:24.401Z,10.45
2019-04-07T10:21:56.086Z,10.05
2019-04-07T10:24:44.796Z,11.45
2019-04-07T10:27:17.632Z,11.28
2019-04-07T10:29:49.209Z,10.95
2019-04-07T10:32:36.283Z,10.63
2019-04-07T10:35:12.462Z,10.65
2019-04-07T10:37:43.969Z,10.95
2019-04-07T10:40:33.453Z,9.88
2019-04-07T10:43:05.182Z,9.38
2019-04-07T10:45:39.361Z,10.58
2019-04-07T10:48:15.997Z,9.93
2019-04-07T10:50:55.593Z,10.43
2019-04-07T10:53:42.480Z,10.08
2019-04-07T10:56:16.486Z,9.05
2019-04-07T10:59:04.363Z,9.68
2019-04-07T11:01:47.486Z,8.68
2019-04-07T11:04:30.645Z,8.68
2019-04-07T11:07:14.514Z,9.20
2019-04-07T11:10:04.899Z,9.78
2019-04-07T11:12:36.828Z,6.55
2019-04-07T11:15:09.801Z,7.30
2019-04-07T11:17:57.083Z,7.10
2019-04-07T11:20:28.263Z,7.50
2019-04-07T11:22:59.235Z,8.40
2019-04-07T11:25:46.203Z,8.38
2019-04-07T11:28:29.102Z,8.85
2019-04-07T11:31:03.779Z,9.20
2019-04-07T11:33:50.620Z,8.70
2019-04-07T11:36:23.254Z,8.10
2019-04-07T11:39:00.584Z,7.90
2019-04-07T11:41:42.410Z,7.30
2019-04-07T11:44:20.189Z,7.72
2019-04-07T11:47:06.162Z,8.13
2019-04-07T11:49:55.262Z,7.70
2019-04-07T11:52:29.131Z,7.45
2019-04-07T11:55:16.277Z,6.92
2019-04-07T11:58:00.649Z,7.10
2019-04-07T12:00:22.859Z,7.53
2019-04-07T12:02:54.522Z,7.42
2019-04-07T12:05:29.290Z,7.35
2019-04-07T12:08:09.392Z,7.83
2019-04-07T12:11:02.810Z,6.85
2019-04-07T12:13:44.135Z,6.75
2019-04-07T12:16:30.605Z,6.95
2019-04-07T12:19:22.816Z,7.00
2019-04-07T12:22:02.256Z,6.70
2019-04-07T12:24:42.228Z,7.28
2019-04-07T12:27:16.182Z,6.72
2019-04-07T12:29:56.865Z,7.20
2019-04-07T12:32:31.348Z,7.10
2019-04-07T12:35:03.180Z,7.20
2019-04-07T12:37:39.316Z,6.97
2019-04-07T12:40:13.293Z,7.08
2019-04-07T12:42:44.257Z,6.15
2019-04-07T12:45:15.297Z,6.90
2019-04-07T12:47:47.434Z,6.28
2019-04-07T12:50:30.552Z,7.03
2019-04-07T12:55:57.954Z,7.42
2019-04-07T12:58:28.809Z,7.78
2019-04-07T13:01:09.316Z,7.37
2019-04-07T13:03:35.097Z,6.45
2019-04-07T13:06:09.512Z,7.15
2019-04-07T13:08:57.835Z,7.42
2019-04-07T13:11:35.765Z,7.67
2019-04-07T13:16:47.944Z,7.25
2019-04-07T13:19:30.731Z,6.50
2019-04-07T13:22:04.695Z,7.83
2019-04-07T13:24:39.214Z,6.80
2019-04-07T13:27:26.467Z,7.12
2019-04-07T13:30:13.855Z,7.95
2019-04-07T13:32:53.082Z,7.78
2019-04-07T13:35:36.363Z,4.90
2019-04-07T13:38:19.418Z,5.50
2019-04-07T13:40:55.929Z,6.72
2019-04-07T13:43:31.131Z,7.12
2019-04-07T13:48:42.171Z,7.37
2019-04-07T13:51:13.173Z,7.10
2019-04-07T13:54:02.382Z,8.65
2019-04-07T13:56:37.043Z,7.22
2019-04-07T13:59:23.672Z,6.67
2019-04-07T14:02:11.029Z,6.45
2019-04-07T14:04:48.905Z,8.55
2019-04-07T14:07:37.227Z,7.17
2019-04-07T14:10:13.374Z,8.78
2019-04-07T14:13:04.131Z,8.85
2019-04-07T14:15:33.245Z,9.45
2019-04-07T14:18:07.277Z,8.78
2019-04-07T14:20:57.827Z,9.63
2019-04-07T14:23:31.755Z,9.58
2019-04-07T14:26:05.724Z,9.25
2019-04-07T14:28:46.024Z,9.68
2019-04-07T14:31:17.524Z,9.48
2019-04-07T14:33:54.577Z,7.78
2019-04-07T14:36:35.079Z,9.28
2019-04-07T14:39:17.625Z,10.35
2019-04-07T14:42:06.769Z,9.90
2019-04-07T14:44:38.578Z,7.87
2019-04-07T14:47:16.156Z,6.67
2019-04-07T14:49:49.471Z,9.73
2019-04-07T14:52:21.004Z,8.60
2019-04-07T14:54:57.094Z,9.50
2019-04-07T14:57:41.565Z,9.38
2019-04-07T15:00:29.125Z,8.43
2019-04-07T15:02:58.556Z,7.20
2019-04-07T15:05:41.863Z,9.13
2019-04-07T15:08:12.791Z,7.37
2019-04-07T15:10:50.182Z,5.92
2019-04-07T15:13:23.915Z,8.45
2019-04-07T15:15:52.662Z,6.90
2019-04-07T15:18:22.909Z,8.15
2019-04-07T15:20:52.765Z,10.00
2019-04-07T15:23:22.956Z,6.72
2019-04-07T15:25:52.758Z,7.85
2019-04-07T15:28:22.660Z,7.78
2019-04-07T15:30:52.332Z,7.12
2019-04-07T15:33:22.341Z,8.78
2019-04-07T15:35:52.381Z,8.95
2019-04-07T15:38:24.838Z,9.10
2019-04-07T15:40:52.734Z,9.28
2019-04-07T15:43:22.375Z,8.23
2019-04-07T15:45:52.295Z,10.30
2019-04-07T15:48:25.793Z,10.05
2019-04-07T15:50:52.904Z,10.40
2019-04-07T15:53:22.308Z,9.65
2019-04-07T15:56:01.192Z,9.98
2019-04-07T15:58:22.876Z,10.05
2019-04-07T16:00:54.806Z,9.65
2019-04-07T16:03:24.290Z,10.45
2019-04-07T16:05:54.522Z,10.50
2019-04-07T16:08:26.043Z,9.80
2019-04-07T16:10:55.733Z,10.32
2019-04-07T16:13:26.626Z,10.23
2019-04-07T16:15:57.470Z,8.50
2019-04-07T16:18:26.983Z,10.28
2019-04-07T16:20:56.425Z,10.90
2019-04-07T16:23:26.198Z,10.80
2019-04-07T16:25:58.974Z,10.85
2019-04-07T16:28:27.388Z,11.22
2019-04-07T16:30:56.825Z,10.98
2019-04-07T16:33:26.217Z,10.35
2019-04-07T16:35:56.630Z,9.90
2019-04-07T16:38:28.351Z,10.55
2019-04-07T16:40:57.054Z,10.28
2019-04-07T16:43:28.650Z,11.05
2019-04-07T16:45:58.252Z,10.50
2019-04-07T16:48:28.318Z,11.03
2019-04-07T16:50:57.861Z,10.78
2019-04-07T16:53:28.020Z,11.00
2019-04-07T16:55:57.612Z,10.82
2019-04-07T16:58:27.617Z,11.48
2019-04-07T17:00:57.895Z,11.50
2019-04-07T17:03:27.563Z,10.50
2019-04-07T17:06:00.040Z,11.63
2019-04-07T17:08:29.986Z,10.75
2019-04-07T17:11:04.068Z,11.20
2019-04-07T17:13:38.132Z,11.40
2019-04-07T17:16:01.619Z,11.43
2019-04-07T17:18:38.916Z,11.57
2019-04-07T17:21:12.768Z,11.38
2019-04-07T17:23:42.912Z,10.90
2019-04-07T17:26:12.481Z,11.40
2019-04-07T17:28:46.032Z,10.78
2019-04-07T17:31:14.537Z,10.93
2019-04-07T17:33:43.951Z,11.00
2019-04-07T17:36:18.334Z,11.03
2019-04-07T17:39:05.507Z,11.20
2019-04-07T17:41:37.160Z,9.73
2019-04-07T17:44:26.594Z,11.30
2019-04-07T17:47:13.779Z,10.90
2019-04-07T17:50:04.239Z,12.03
2019-04-07T17:52:40.541Z,12.10
2019-04-07T17:55:17.561Z,11.25
2019-04-07T17:58:07.206Z,11.38
2019-04-07T18:00:41.425Z,11.48
2019-04-07T18:03:25.743Z,11.55
2019-04-07T18:06:15.480Z,11.40
2019-04-07T18:08:45.986Z,11.25
2019-04-07T18:11:17.706Z,11.43
2019-04-07T18:13:53.842Z,11.68
2019-04-07T18:16:36.403Z,11.10
2019-04-07T18:19:10.902Z,11.12
2019-04-07T18:21:47.828Z,11.70
2019-04-07T18:24:18.064Z,11.75
2019-04-07T18:27:04.371Z,12.40
2019-04-07T18:29:36.210Z,9.13
2019-04-07T18:32:09.854Z,11.75
2019-04-07T18:34:40.040Z,11.88
2019-04-07T18:37:27.481Z,11.22
2019-04-07T18:40:05.622Z,13.48
2019-04-07T18:42:49.048Z,13.22
2019-04-07T18:45:35.308Z,13.75
2019-04-07T18:48:12.529Z,12.58
2019-04-07T18:50:44.381Z,13.00
2019-04-07T18:53:31.676Z,13.40
2019-04-07T18:56:15.256Z,13.78
2019-04-07T18:58:52.276Z,13.30
2019-04-07T19:01:28.358Z,12.73
2019-04-07T19:04:05.383Z,13.20
2019-04-07T19:06:49.669Z,13.68
2019-04-07T19:09:36.641Z,14.20
2019-04-07T19:12:24.716Z,14.10
2019-04-07T19:15:03.784Z,15.28
2019-04-07T19:17:34.731Z,15.38
2019-04-07T19:20:20.645Z,14.43
2019-04-07T19:22:51.626Z,15.00
2019-04-07T19:25:42.648Z,14.85
2019-04-07T19:28:11.668Z,14.28
2019-04-07T19:30:59.247Z,14.20
2019-04-07T19:33:33.475Z,15.68
2019-04-07T19:36:05.937Z,15.88
2019-04-07T19:38:38.547Z,14.95
2019-04-07T19:41:09.887Z,16.20
2019-04-07T19:43:56.768Z,17.12
2019-04-07T19:46:29.464Z,17.92
2019-04-07T19:49:06.631Z,17.07
2019-04-07T19:51:53.735Z,15.90
2019-04-07T19:54:36.726Z,16.25
2019-04-07T19:57:11.267Z,16.35
2019-04-07T19:59:46.437Z,16.32
2019-04-07T20:02:17.573Z,15.78
2019-04-07T20:04:54.959Z,17.27
2019-04-07T20:07:38.373Z,16.48
2019-04-07T20:10:11.043Z,16.77
2019-04-07T20:12:58.462Z,16.33
2019-04-07T20:15:31.018Z,17.77
2019-04-07T20:18:04.844Z,16.52
2019-04-07T20:20:35.805Z,17.30
2019-04-07T20:23:17.349Z,17.60
2019-04-07T20:25:49.281Z,17.62
2019-04-07T20:28:23.361Z,17.98
2019-04-07T20:31:02.652Z,17.77
2019-04-07T20:33:42.510Z,17.48
2019-04-07T20:36:24.187Z,18.45
2019-04-07T20:39:01.797Z,18.70
2019-04-07T20:41:43.706Z,18.70
2019-04-07T20:44:28.933Z,18.67
2019-04-07T20:47:13.370Z,18.50
2019-04-07T20:49:49.134Z,19.20
2019-04-07T20:52:38.312Z,18.75
2019-04-07T20:55:25.919Z,19.00
2019-04-07T20:58:16.252Z,19.15
2019-04-07T21:00:57.688Z,18.98
2019-04-07T21:03:39.328Z,17.82
2019-04-07T21:06:12.998Z,18.55
2019-04-07T21:11:15.178Z,18.48
2019-04-07T21:14:02.911Z,18.30
2019-04-07T21:16:35.094Z,18.32
2019-04-07T21:19:09.586Z,19.85
2019-04-07T21:21:49.613Z,19.32
2019-04-07T21:24:30.262Z,19.92
2019-04-07T21:27:02.582Z,18.07
2019-04-07T21:29:45.571Z,18.40
2019-04-07T21:32:21.602Z,18.75
2019-04-07T21:35:09.139Z,20.00
2019-04-07T21:37:56.318Z,19.17
2019-04-07T21:40:42.167Z,18.02
2019-04-07T21:43:14.888Z,18.98
2019-04-07T21:45:50.261Z,19.55
2019-04-07T21:48:22.044Z,19.53
2019-04-07T21:50:53.705Z,18.87
2019-04-07T21:53:28.837Z,19.50
2019-04-07T21:56:00.296Z,19.00
2019-04-07T21:58:39.944Z,20.17
2019-04-07T22:01:12.064Z,19.37
2019-04-07T22:03:52.443Z,20.02
2019-04-07T22:06:29.318Z,19.73
2019-04-07T22:09:08.867Z,19.50
2019-04-07T22:11:38.344Z,20.08
2019-04-07T22:14:07.900Z,19.90
2019-04-07T22:16:37.325Z,19.62
2019-04-07T22:19:10.561Z,19.90
2019-04-07T22:21:38.269Z,19.80
2019-04-07T22:24:07.742Z,19.85
2019-04-07T22:26:37.126Z,19.60
2019-04-07T22:29:06.464Z,19.60
2019-04-07T22:31:47.590Z,20.05
2019-04-07T22:34:17.168Z,20.32
2019-04-07T22:36:47.998Z,20.62
2019-04-07T22:39:18.474Z,20.23
2019-04-07T22:41:48.373Z,21.50
2019-04-07T22:44:19.945Z,21.12
2019-04-07T22:46:52.101Z,21.10
2019-04-07T22:49:20.915Z,20.27
2019-04-07T22:51:51.085Z,20.65
2019-04-07T22:54:22.077Z,20.45
2019-04-07T22:56:52.263Z,21.40
2019-04-07T22:59:21.939Z,20.70
2019-04-07T23:01:51.478Z,21.05
2019-04-07T23:04:20.928Z,22.25
2019-04-07T23:06:50.289Z,20.48
2019-04-07T23:09:19.883Z,22.35
2019-04-07T23:11:49.235Z,20.95
2019-04-07T23:14:19.980Z,22.35
2019-04-07T23:16:49.273Z,23.10
2019-04-07T23:19:18.682Z,21.70
2019-04-07T23:21:49.107Z,22.65
2019-04-07T23:24:19.224Z,21.62
2019-04-07T23:26:48.871Z,23.15
2019-04-07T23:29:18.276Z,22.73
2019-04-07T23:31:47.621Z,22.80
2019-04-07T23:34:17.049Z,23.73
2019-04-07T23:36:47.833Z,24.47
2019-04-07T23:39:18.142Z,23.77
2019-04-07T23:41:47.511Z,23.05
2019-04-07T23:44:16.861Z,24.10
2019-04-07T23:46:46.692Z,23.38
2019-04-07T23:49:17.152Z,23.87
2019-04-07T23:51:46.495Z,25.12
2019-04-07T23:54:16.447Z,23.65
2019-04-07T23:56:45.900Z,23.47
2019-04-07T23:59:16.421Z,26.30
